createdAt,value
2022-10-07T00:13:57.198Z,10.10
2022-10-07T00:29:01.255Z,12.20
2022-10-07T00:44:32.508Z,13.40
2022-10-07T00:59:38.416Z,11.30
2022-10-07T01:15:12.281Z,9.00
2022-10-07T01:30:16.206Z,7.80
2022-10-07T01:45:22.047Z,8.30
2022-10-07T02:00:25.617Z,10.30
2022-10-07T02:15:38.834Z,9.60
2022-10-07T02:30:45.917Z,9.10
2022-10-07T02:46:17.667Z,12.00
2022-10-07T03:01:28.074Z,11.80
2022-10-07T03:16:33.041Z,10.00
2022-10-07T03:31:37.538Z,11.70
2022-10-07T03:46:41.006Z,10.50
2022-10-07T04:01:44.693Z,13.30
2022-10-07T04:16:48.192Z,12.70
2022-10-07T04:31:52.235Z,13.50
2022-10-07T04:46:57.095Z,12.80
2022-10-07T05:02:02.233Z,15.50
2022-10-07T05:17:06.584Z,17.40
2022-10-07T05:32:10.911Z,16.20
2022-10-07T05:47:14.542Z,15.00
2022-10-07T06:02:19.338Z,17.10
2022-10-07T06:17:23.310Z,27.80
2022-10-07T06:32:30.557Z,15.10
2022-10-07T06:47:34.820Z,15.80
2022-10-07T07:02:38.108Z,11.20
2022-10-07T07:17:42.818Z,10.10
2022-10-07T07:32:47.514Z,8.50
2022-10-07T07:47:51.072Z,8.70
2022-10-07T08:02:55.110Z,7.50
2022-10-07T08:17:59.371Z,8.30
2022-10-07T08:33:02.691Z,6.00
2022-10-07T08:48:22.826Z,5.60
2022-10-07T09:03:44.444Z,5.10
2022-10-07T09:18:53.640Z,4.30
2022-10-07T09:33:57.205Z,3.50
2022-10-07T09:49:05.440Z,3.60
2022-10-07T10:04:27.402Z,3.00
2022-10-07T10:19:34.958Z,3.00
2022-10-07T10:35:15.303Z,2.60
2022-10-07T10:50:29.354Z,2.30
2022-10-07T11:05:36.921Z,3.00
2022-10-07T11:20:48.608Z,2.50
2022-10-07T11:35:57.816Z,1.70
2022-10-07T11:51:04.632Z,2.40
2022-10-07T12:06:13.538Z,2.20
2022-10-07T12:21:17.050Z,1.80
2022-10-07T12:36:23.976Z,1.90
2022-10-07T12:51:39.758Z,3.00
2022-10-07T13:07:19.184Z,2.90
2022-10-07T13:22:24.604Z,2.30
2022-10-07T13:37:36.341Z,1.80
2022-10-07T13:52:47.526Z,2.40
2022-10-07T14:07:58.963Z,1.90
2022-10-07T14:23:06.202Z,5.70
2022-10-07T14:53:23.095Z,2.20
2022-10-07T15:08:26.681Z,6.00
2022-10-07T15:23:30.435Z,4.00
2022-10-07T15:38:33.455Z,1.60
2022-10-07T15:53:36.420Z,5.80
2022-10-07T16:08:40.112Z,20.50
2022-10-07T16:23:46.583Z,18.80
2022-10-07T16:38:52.605Z,20.10
2022-10-07T16:54:03.531Z,40.60
2022-10-07T17:09:07.075Z,58.40
2022-10-07T17:24:10.752Z,32.90
2022-10-07T17:39:14.998Z,19.80
2022-10-07T17:54:18.676Z,17.00
2022-10-07T18:21:58.895Z,38.60
2022-10-07T18:37:02.827Z,33.00
2022-10-07T18:52:07.604Z,39.90
2022-10-07T19:07:11.216Z,56.60
2022-10-07T19:22:17.268Z,77.00
2022-10-07T19:37:21.670Z,106.90
2022-10-07T19:52:26.683Z,128.40
2022-10-07T20:07:30.638Z,152.80
2022-10-07T20:22:34.708Z,145.90
2022-10-07T20:37:38.799Z,145.00
2022-10-07T20:52:42.597Z,118.90
2022-10-07T21:07:45.983Z,87.60
2022-10-07T21:22:49.955Z,88.20
2022-10-07T21:37:53.458Z,64.90
2022-10-07T21:52:56.878Z,70.10
2022-10-07T22:08:18.701Z,75.80
2022-10-07T22:23:21.813Z,87.30
2022-10-07T22:38:25.587Z,86.10
2022-10-07T22:53:28.824Z,70.70
2022-10-07T23:08:32.597Z,79.80
2022-10-07T23:23:37.374Z,84.80
2022-10-07T23:38:47.091Z,54.40
2022-10-07T23:53:50.968Z,33.40
